• Join FlightAware (Why Join?)
  • Login
  • US Flag 
11:45PM EST


 

Airport Tracker/Info


-or-


 

Live Flight TrackerFlight Track Log ✈ N525EG ✈ 03-May-2013 ✈ KMIE - KJVY

Flight Track Log - Related Links

Times and Time Zones

All times are in EDT time to prevent confusion due to time zone crossing. See the N525EG flight status page for this flight to view local times or setup timezone preferences in your user account.

Time Position Orientation Groundspeed Altitude Reporting Facility
EDT Latitude Longitude Course Direction KTS MPH feet Rate Location/Type
10:12AM 40.1000 -85.3667 180° South 209 241 5,400  Level Indianapolis TRACON
10:13AM 40.0419 -85.3847 193° South 229 264 9,400 2,190 Climbing Indianapolis Center
10:14AM 39.9650 -85.3994 188° South 269 310 10,000 919 Climbing Indianapolis Center
10:15AM 39.8861 -85.4125 187° South 283 326 11,300 1,887 Climbing Indianapolis Center
10:16AM 39.7906 -85.4294 188° South 288 331 13,900 1,306 Climbing Indianapolis Center
10:17AM 39.7089 -85.4428 187° South 294 338 14,000 48 Climbing Indianapolis Center
10:18AM 39.6267 -85.4578 188° South 297 342 14,000  Level Indianapolis Center
10:19AM 39.5436 -85.4728 188° South 300 345 14,000  Level Indianapolis Center
10:20AM 39.4600 -85.4867 187° South 303 349 14,000  Level Indianapolis Center
10:21AM 39.3761 -85.5008 187° South 302 348 14,000 -97 Level Indianapolis Center
10:22AM 39.2756 -85.5194 188° South 303 349 13,800 -629 Descending Indianapolis Center
10:23AM 39.1933 -85.5328 187° South 298 343 12,700 -1,100 Descending Indianapolis Center
10:29AM 38.7300 -85.6120 187° South 248 285 5,900 -1,049 Descending FlightAware
10:29AM 38.7110 -85.6150 187° South 245 282 5,900  Level FlightAware
10:30AM 38.6510 -85.6250 187° South 251 289 5,900  Level FlightAware
10:30AM 38.6480 -85.6260 195° South 251 289 5,900  Level FlightAware
10:31AM 38.5980 -85.6350 188° South 243 280 5,900  Level FlightAware
10:31AM 38.5730 -85.6440 196° South 229 264 5,900  Level FlightAware
10:32AM 38.5570 -85.6510 199° South 221 254 5,900  Level FlightAware
10:32AM 38.5360 -85.6610 200° South 200 230 5,900 -360 Level FlightAware
10:33AM 38.5150 -85.6700 199° South 188 216 5,600 -1,600 Descending FlightAware
10:33AM 38.4840 -85.6880 204° Southwest 209 241 4,300 -2,000 Descending FlightAware
10:34AM 38.4650 -85.7080 219° Southwest 202 232 3,600 -1,418 Descending FlightAware
10:34AM 38.4460 -85.7310 223° Southwest 195 224 3,000 -1,200 Descending FlightAware
10:35AM 38.4210 -85.7450 204° Southwest 179 206 2,400 -982 Descending FlightAware
10:35AM 38.4030 -85.7470 185° South 171 197 2,100 -436 Descending FlightAware
10:35AM 38.3790 -85.7470 180° South 172 198 2,000 -200 Descending FlightAware
10:36AM 38.3560 -85.7400 167° South 172 198 1,900  Descending FlightAware
10:36AM 38.3430 -85.7170 126° Southeast 174 200 2,000 -257 Climbing FlightAware
10:38AM 38.4090 -85.7280 353° North 128 147 1,300 -444 Descending FlightAware
10:39AM 38.3980 -85.7370 213° Southwest 117 135 1,000 -686 Descending FlightAware
10:39AM 38.3930 -85.7380 189° South 113 130 900 -171 Descending FlightAware
10:39AM 38.3810 -85.7380 180° South 113 130 900  Level FlightAware
10:42AM 38.3654 -85.7382 201° Southwest  Level Estimated
10:43AM 38.3654 -85.7382 201° Southwest  Level Estimated